sensor_id;sensor_type;location;lat;lon;timestamp;P1;durP1;ratioP1;P2;durP2;ratioP2
6832;SDS011;3454;42.654;23.378;2023-12-04T00:00:42;6.93;;;4.40;;
6832;SDS011;3454;42.654;23.378;2023-12-04T00:03:08;7.53;;;4.40;;
6832;SDS011;3454;42.654;23.378;2023-12-04T00:05:34;7.03;;;4.30;;
6832;SDS011;3454;42.654;23.378;2023-12-04T00:07:59;7.57;;;4.37;;
6832;SDS011;3454;42.654;23.378;2023-12-04T00:10:25;6.60;;;4.13;;
6832;SDS011;3454;42.654;23.378;2023-12-04T00:12:50;6.40;;;4.40;;
6832;SDS011;3454;42.654;23.378;2023-12-04T00:15:17;7.07;;;4.53;;
6832;SDS011;3454;42.654;23.378;2023-12-04T00:17:44;7.67;;;4.30;;
6832;SDS011;3454;42.654;23.378;2023-12-04T00:20:16;5.27;;;4.00;;
6832;SDS011;3454;42.654;23.378;2023-12-04T00:22:42;7.67;;;4.03;;
6832;SDS011;3454;42.654;23.378;2023-12-04T00:25:07;10.30;;;4.60;;
6832;SDS011;3454;42.654;23.378;2023-12-04T00:27:33;7.10;;;3.60;;
6832;SDS011;3454;42.654;23.378;2023-12-04T00:29:58;7.17;;;4.57;;
6832;SDS011;3454;42.654;23.378;2023-12-04T00:32:24;6.17;;;3.97;;
6832;SDS011;3454;42.654;23.378;2023-12-04T00:34:49;6.33;;;4.10;;
6832;SDS011;3454;42.654;23.378;2023-12-04T00:37:15;5.27;;;4.00;;
6832;SDS011;3454;42.654;23.378;2023-12-04T00:39:40;8.30;;;3.83;;
6832;SDS011;3454;42.654;23.378;2023-12-04T00:42:06;7.03;;;3.87;;
6832;SDS011;3454;42.654;23.378;2023-12-04T00:44:31;7.13;;;3.83;;
6832;SDS011;3454;42.654;23.378;2023-12-04T00:46:57;5.97;;;3.43;;
6832;SDS011;3454;42.654;23.378;2023-12-04T00:49:23;5.87;;;3.50;;
6832;SDS011;3454;42.654;23.378;2023-12-04T00:51:49;5.17;;;3.57;;
6832;SDS011;3454;42.654;23.378;2023-12-04T00:54:15;4.37;;;2.90;;
6832;SDS011;3454;42.654;23.378;2023-12-04T00:56:40;7.80;;;3.90;;
6832;SDS011;3454;42.654;23.378;2023-12-04T00:59:09;7.80;;;4.10;;
6832;SDS011;3454;42.654;23.378;2023-12-04T01:01:39;7.13;;;4.40;;
6832;SDS011;3454;42.654;23.378;2023-12-04T01:04:04;6.50;;;3.90;;
6832;SDS011;3454;42.654;23.378;2023-12-04T01:06:30;6.60;;;4.23;;
6832;SDS011;3454;42.654;23.378;2023-12-04T01:08:56;4.73;;;3.47;;
6832;SDS011;3454;42.654;23.378;2023-12-04T01:11:22;6.83;;;4.00;;
6832;SDS011;3454;42.654;23.378;2023-12-04T01:13:48;4.83;;;3.20;;
6832;SDS011;3454;42.654;23.378;2023-12-04T01:16:14;6.30;;;4.53;;
6832;SDS011;3454;42.654;23.378;2023-12-04T01:18:40;5.13;;;3.20;;
6832;SDS011;3454;42.654;23.378;2023-12-04T01:21:07;6.47;;;4.20;;
6832;SDS011;3454;42.654;23.378;2023-12-04T01:23:36;6.67;;;4.57;;
6832;SDS011;3454;42.654;23.378;2023-12-04T01:26:02;6.10;;;4.13;;
6832;SDS011;3454;42.654;23.378;2023-12-04T01:28:28;7.17;;;4.13;;
6832;SDS011;3454;42.654;23.378;2023-12-04T01:30:54;5.70;;;3.70;;
6832;SDS011;3454;42.654;23.378;2023-12-04T01:33:20;7.03;;;4.30;;
6832;SDS011;3454;42.654;23.378;2023-12-04T01:35:45;7.03;;;4.17;;
6832;SDS011;3454;42.654;23.378;2023-12-04T01:38:11;5.70;;;3.87;;
6832;SDS011;3454;42.654;23.378;2023-12-04T01:40:36;6.07;;;3.93;;
6832;SDS011;3454;42.654;23.378;2023-12-04T01:43:02;5.03;;;3.70;;
6832;SDS011;3454;42.654;23.378;2023-12-04T01:45:27;5.23;;;3.80;;
6832;SDS011;3454;42.654;23.378;2023-12-04T01:47:53;7.33;;;3.70;;
6832;SDS011;3454;42.654;23.378;2023-12-04T01:50:19;9.37;;;4.40;;
6832;SDS011;3454;42.654;23.378;2023-12-04T01:52:45;8.00;;;4.53;;
6832;SDS011;3454;42.654;23.378;2023-12-04T01:55:12;8.17;;;4.50;;
6832;SDS011;3454;42.654;23.378;2023-12-04T01:57:38;8.07;;;4.83;;
6832;SDS011;3454;42.654;23.378;2023-12-04T02:00:04;7.03;;;4.70;;
6832;SDS011;3454;42.654;23.378;2023-12-04T02:02:36;6.63;;;3.93;;
6832;SDS011;3454;42.654;23.378;2023-12-04T02:05:02;6.63;;;3.97;;
6832;SDS011;3454;42.654;23.378;2023-12-04T02:07:30;6.60;;;4.37;;
6832;SDS011;3454;42.654;23.378;2023-12-04T02:09:57;6.93;;;4.33;;
6832;SDS011;3454;42.654;23.378;2023-12-04T02:12:23;6.83;;;4.13;;
6832;SDS011;3454;42.654;23.378;2023-12-04T02:14:48;10.03;;;4.53;;
6832;SDS011;3454;42.654;23.378;2023-12-04T02:17:14;6.73;;;4.67;;
6832;SDS011;3454;42.654;23.378;2023-12-04T02:19:42;8.87;;;4.77;;
6832;SDS011;3454;42.654;23.378;2023-12-04T02:22:08;8.07;;;4.33;;
6832;SDS011;3454;42.654;23.378;2023-12-04T02:24:34;7.13;;;4.27;;
6832;SDS011;3454;42.654;23.378;2023-12-04T02:27:04;6.73;;;4.17;;
6832;SDS011;3454;42.654;23.378;2023-12-04T02:29:59;8.03;;;4.10;;
6832;SDS011;3454;42.654;23.378;2023-12-04T02:32:28;5.40;;;3.93;;
6832;SDS011;3454;42.654;23.378;2023-12-04T02:34:56;5.80;;;4.27;;
6832;SDS011;3454;42.654;23.378;2023-12-04T02:37:24;4.93;;;3.33;;
6832;SDS011;3454;42.654;23.378;2023-12-04T02:39:52;6.93;;;4.43;;
6832;SDS011;3454;42.654;23.378;2023-12-04T02:42:20;8.77;;;4.27;;
6832;SDS011;3454;42.654;23.378;2023-12-04T02:44:46;6.47;;;3.90;;
6832;SDS011;3454;42.654;23.378;2023-12-04T02:47:12;7.00;;;4.13;;
6832;SDS011;3454;42.654;23.378;2023-12-04T02:49:38;5.60;;;3.90;;
6832;SDS011;3454;42.654;23.378;2023-12-04T02:52:03;6.47;;;3.57;;
6832;SDS011;3454;42.654;23.378;2023-12-04T02:54:29;7.07;;;4.27;;
6832;SDS011;3454;42.654;23.378;2023-12-04T02:56:54;6.30;;;4.10;;
6832;SDS011;3454;42.654;23.378;2023-12-04T02:59:20;5.13;;;3.80;;
6832;SDS011;3454;42.654;23.378;2023-12-04T03:01:45;7.37;;;4.20;;
6832;SDS011;3454;42.654;23.378;2023-12-04T03:04:11;6.63;;;4.47;;
6832;SDS011;3454;42.654;23.378;2023-12-04T03:06:37;5.90;;;4.33;;
6832;SDS011;3454;42.654;23.378;2023-12-04T03:09:03;7.80;;;4.53;;
6832;SDS011;3454;42.654;23.378;2023-12-04T03:11:30;6.47;;;4.07;;
6832;SDS011;3454;42.654;23.378;2023-12-04T03:13:55;6.80;;;4.07;;
6832;SDS011;3454;42.654;23.378;2023-12-04T03:16:21;7.43;;;4.50;;
6832;SDS011;3454;42.654;23.378;2023-12-04T03:18:46;7.80;;;4.10;;
6832;SDS011;3454;42.654;23.378;2023-12-04T03:21:12;7.87;;;4.37;;
6832;SDS011;3454;42.654;23.378;2023-12-04T03:23:37;7.53;;;4.47;;
6832;SDS011;3454;42.654;23.378;2023-12-04T03:26:03;6.83;;;3.93;;
6832;SDS011;3454;42.654;23.378;2023-12-04T03:28:28;6.23;;;3.93;;
6832;SDS011;3454;42.654;23.378;2023-12-04T03:30:54;7.70;;;4.70;;
6832;SDS011;3454;42.654;23.378;2023-12-04T03:33:20;6.80;;;4.00;;
6832;SDS011;3454;42.654;23.378;2023-12-04T03:35:45;11.30;;;4.57;;
6832;SDS011;3454;42.654;23.378;2023-12-04T03:38:11;6.77;;;3.30;;
6832;SDS011;3454;42.654;23.378;2023-12-04T03:40:37;6.60;;;3.90;;
6832;SDS011;3454;42.654;23.378;2023-12-04T03:43:02;7.27;;;4.30;;
6832;SDS011;3454;42.654;23.378;2023-12-04T03:45:28;7.07;;;4.37;;
6832;SDS011;3454;42.654;23.378;2023-12-04T03:47:53;5.37;;;3.70;;
6832;SDS011;3454;42.654;23.378;2023-12-04T03:50:19;4.23;;;3.30;;
6832;SDS011;3454;42.654;23.378;2023-12-04T03:52:44;7.00;;;4.23;;
6832;SDS011;3454;42.654;23.378;2023-12-04T03:55:10;4.27;;;3.53;;
6832;SDS011;3454;42.654;23.378;2023-12-04T03:57:36;7.20;;;4.10;;
6832;SDS011;3454;42.654;23.378;2023-12-04T04:00:09;5.30;;;3.73;;
6832;SDS011;3454;42.654;23.378;2023-12-04T04:02:35;5.87;;;4.03;;
6832;SDS011;3454;42.654;23.378;2023-12-04T04:05:01;6.73;;;4.10;;
6832;SDS011;3454;42.654;23.378;2023-12-04T04:07:26;6.87;;;3.70;;
6832;SDS011;3454;42.654;23.378;2023-12-04T04:09:52;6.40;;;3.70;;
6832;SDS011;3454;42.654;23.378;2023-12-04T04:12:17;7.43;;;4.00;;
6832;SDS011;3454;42.654;23.378;2023-12-04T04:14:43;6.70;;;3.47;;
6832;SDS011;3454;42.654;23.378;2023-12-04T04:17:08;6.57;;;4.17;;
6832;SDS011;3454;42.654;23.378;2023-12-04T04:19:34;8.60;;;4.63;;
6832;SDS011;3454;42.654;23.378;2023-12-04T04:22:00;5.03;;;3.60;;
6832;SDS011;3454;42.654;23.378;2023-12-04T04:24:25;8.17;;;3.80;;
6832;SDS011;3454;42.654;23.378;2023-12-04T04:26:50;6.43;;;4.00;;
6832;SDS011;3454;42.654;23.378;2023-12-04T04:29:16;7.87;;;4.30;;
6832;SDS011;3454;42.654;23.378;2023-12-04T04:31:41;6.17;;;3.50;;
6832;SDS011;3454;42.654;23.378;2023-12-04T04:34:07;5.10;;;3.93;;
6832;SDS011;3454;42.654;23.378;2023-12-04T04:36:32;6.20;;;3.83;;
6832;SDS011;3454;42.654;23.378;2023-12-04T04:39:01;6.27;;;3.97;;
6832;SDS011;3454;42.654;23.378;2023-12-04T04:41:27;5.80;;;3.33;;
6832;SDS011;3454;42.654;23.378;2023-12-04T04:43:52;5.23;;;3.50;;
6832;SDS011;3454;42.654;23.378;2023-12-04T04:46:18;6.57;;;3.97;;
6832;SDS011;3454;42.654;23.378;2023-12-04T04:48:44;6.47;;;3.60;;
6832;SDS011;3454;42.654;23.378;2023-12-04T04:51:09;4.67;;;3.53;;
6832;SDS011;3454;42.654;23.378;2023-12-04T04:53:35;5.80;;;3.47;;
6832;SDS011;3454;42.654;23.378;2023-12-04T04:56:00;7.67;;;3.90;;
6832;SDS011;3454;42.654;23.378;2023-12-04T04:58:26;5.83;;;4.17;;
6832;SDS011;3454;42.654;23.378;2023-12-04T05:00:51;6.47;;;3.93;;
6832;SDS011;3454;42.654;23.378;2023-12-04T05:03:17;4.87;;;3.57;;
6832;SDS011;3454;42.654;23.378;2023-12-04T05:05:42;9.23;;;4.23;;
6832;SDS011;3454;42.654;23.378;2023-12-04T05:08:08;5.23;;;3.50;;
6832;SDS011;3454;42.654;23.378;2023-12-04T05:10:34;5.77;;;3.37;;
6832;SDS011;3454;42.654;23.378;2023-12-04T05:12:59;6.63;;;3.70;;
6832;SDS011;3454;42.654;23.378;2023-12-04T05:15:25;6.83;;;3.60;;
6832;SDS011;3454;42.654;23.378;2023-12-04T05:17:51;6.20;;;3.70;;
6832;SDS011;3454;42.654;23.378;2023-12-04T05:20:16;6.33;;;3.50;;
6832;SDS011;3454;42.654;23.378;2023-12-04T05:22:42;5.87;;;4.20;;
6832;SDS011;3454;42.654;23.378;2023-12-04T05:25:08;6.53;;;3.63;;
6832;SDS011;3454;42.654;23.378;2023-12-04T05:27:33;5.37;;;3.47;;
6832;SDS011;3454;42.654;23.378;2023-12-04T05:29:59;6.07;;;3.33;;
6832;SDS011;3454;42.654;23.378;2023-12-04T05:32:24;5.37;;;3.33;;
6832;SDS011;3454;42.654;23.378;2023-12-04T05:34:50;5.77;;;3.57;;
6832;SDS011;3454;42.654;23.378;2023-12-04T05:37:16;6.00;;;3.77;;
6832;SDS011;3454;42.654;23.378;2023-12-04T05:39:41;5.83;;;3.60;;
6832;SDS011;3454;42.654;23.378;2023-12-04T05:42:07;6.53;;;4.20;;
6832;SDS011;3454;42.654;23.378;2023-12-04T05:44:33;6.87;;;4.37;;
6832;SDS011;3454;42.654;23.378;2023-12-04T05:47:00;5.37;;;4.10;;
6832;SDS011;3454;42.654;23.378;2023-12-04T05:49:25;9.50;;;4.97;;
6832;SDS011;3454;42.654;23.378;2023-12-04T05:51:51;8.87;;;5.37;;
6832;SDS011;3454;42.654;23.378;2023-12-04T05:54:17;8.53;;;4.63;;
6832;SDS011;3454;42.654;23.378;2023-12-04T05:56:43;7.27;;;4.03;;
6832;SDS011;3454;42.654;23.378;2023-12-04T05:59:09;6.57;;;4.20;;
6832;SDS011;3454;42.654;23.378;2023-12-04T06:01:34;6.50;;;4.47;;
6832;SDS011;3454;42.654;23.378;2023-12-04T06:04:00;8.80;;;4.70;;
6832;SDS011;3454;42.654;23.378;2023-12-04T06:06:26;8.20;;;4.80;;
6832;SDS011;3454;42.654;23.378;2023-12-04T06:08:52;8.30;;;5.00;;
6832;SDS011;3454;42.654;23.378;2023-12-04T06:11:18;8.40;;;4.27;;
6832;SDS011;3454;42.654;23.378;2023-12-04T06:13:44;6.50;;;4.33;;
6832;SDS011;3454;42.654;23.378;2023-12-04T06:16:09;6.73;;;3.93;;
6832;SDS011;3454;42.654;23.378;2023-12-04T06:18:35;8.53;;;5.10;;
6832;SDS011;3454;42.654;23.378;2023-12-04T06:21:01;7.63;;;4.33;;
6832;SDS011;3454;42.654;23.378;2023-12-04T06:23:27;7.87;;;5.40;;
6832;SDS011;3454;42.654;23.378;2023-12-04T06:25:53;8.50;;;4.47;;
6832;SDS011;3454;42.654;23.378;2023-12-04T06:28:19;8.90;;;4.67;;
6832;SDS011;3454;42.654;23.378;2023-12-04T06:30:45;7.07;;;4.53;;
6832;SDS011;3454;42.654;23.378;2023-12-04T06:33:10;8.90;;;5.23;;
6832;SDS011;3454;42.654;23.378;2023-12-04T06:35:38;6.93;;;4.70;;
6832;SDS011;3454;42.654;23.378;2023-12-04T06:38:07;8.60;;;4.87;;
6832;SDS011;3454;42.654;23.378;2023-12-04T06:40:33;9.43;;;5.63;;
6832;SDS011;3454;42.654;23.378;2023-12-04T06:43:00;10.07;;;5.60;;
6832;SDS011;3454;42.654;23.378;2023-12-04T06:45:25;9.30;;;5.03;;
6832;SDS011;3454;42.654;23.378;2023-12-04T06:47:52;9.00;;;5.07;;
6832;SDS011;3454;42.654;23.378;2023-12-04T06:50:19;8.10;;;5.17;;
6832;SDS011;3454;42.654;23.378;2023-12-04T06:52:45;8.40;;;5.07;;
6832;SDS011;3454;42.654;23.378;2023-12-04T06:55:11;10.30;;;5.10;;
6832;SDS011;3454;42.654;23.378;2023-12-04T06:57:37;11.20;;;5.73;;
6832;SDS011;3454;42.654;23.378;2023-12-04T07:00:03;10.07;;;5.47;;
6832;SDS011;3454;42.654;23.378;2023-12-04T07:02:31;7.07;;;4.73;;
6832;SDS011;3454;42.654;23.378;2023-12-04T07:04:57;9.53;;;5.43;;
6832;SDS011;3454;42.654;23.378;2023-12-04T07:07:23;10.33;;;5.33;;
6832;SDS011;3454;42.654;23.378;2023-12-04T07:09:48;7.57;;;4.70;;
6832;SDS011;3454;42.654;23.378;2023-12-04T07:12:14;6.60;;;4.30;;
6832;SDS011;3454;42.654;23.378;2023-12-04T07:14:39;7.13;;;4.23;;
6832;SDS011;3454;42.654;23.378;2023-12-04T07:17:05;8.73;;;4.83;;
6832;SDS011;3454;42.654;23.378;2023-12-04T07:19:31;9.17;;;5.33;;
6832;SDS011;3454;42.654;23.378;2023-12-04T07:21:57;10.50;;;5.83;;
6832;SDS011;3454;42.654;23.378;2023-12-04T07:24:22;8.30;;;4.90;;
6832;SDS011;3454;42.654;23.378;2023-12-04T07:26:48;11.57;;;5.77;;
6832;SDS011;3454;42.654;23.378;2023-12-04T07:29:14;9.70;;;5.40;;
6832;SDS011;3454;42.654;23.378;2023-12-04T07:31:41;8.60;;;5.07;;
6832;SDS011;3454;42.654;23.378;2023-12-04T07:34:07;7.17;;;5.10;;
6832;SDS011;3454;42.654;23.378;2023-12-04T07:36:32;8.07;;;5.17;;
6832;SDS011;3454;42.654;23.378;2023-12-04T07:38:58;10.13;;;5.33;;
6832;SDS011;3454;42.654;23.378;2023-12-04T07:41:23;9.63;;;4.53;;
6832;SDS011;3454;42.654;23.378;2023-12-04T07:43:49;8.20;;;5.03;;
6832;SDS011;3454;42.654;23.378;2023-12-04T07:46:16;7.50;;;5.03;;
6832;SDS011;3454;42.654;23.378;2023-12-04T07:48:41;11.33;;;6.50;;
6832;SDS011;3454;42.654;23.378;2023-12-04T07:51:09;7.87;;;5.10;;
6832;SDS011;3454;42.654;23.378;2023-12-04T07:53:35;7.43;;;4.10;;
6832;SDS011;3454;42.654;23.378;2023-12-04T07:56:01;7.80;;;4.27;;
6832;SDS011;3454;42.654;23.378;2023-12-04T07:58:30;8.03;;;5.10;;
6832;SDS011;3454;42.654;23.378;2023-12-04T08:00:57;6.83;;;4.63;;
6832;SDS011;3454;42.654;23.378;2023-12-04T08:03:23;8.80;;;4.10;;
6832;SDS011;3454;42.654;23.378;2023-12-04T08:05:51;7.40;;;4.40;;
6832;SDS011;3454;42.654;23.378;2023-12-04T08:08:17;7.23;;;4.47;;
6832;SDS011;3454;42.654;23.378;2023-12-04T08:10:43;7.80;;;4.87;;
6832;SDS011;3454;42.654;23.378;2023-12-04T08:13:08;7.37;;;3.77;;
6832;SDS011;3454;42.654;23.378;2023-12-04T08:15:34;4.90;;;3.60;;
6832;SDS011;3454;42.654;23.378;2023-12-04T08:18:00;8.17;;;3.97;;
6832;SDS011;3454;42.654;23.378;2023-12-04T08:20:25;7.27;;;4.13;;
6832;SDS011;3454;42.654;23.378;2023-12-04T08:22:51;6.37;;;3.83;;
6832;SDS011;3454;42.654;23.378;2023-12-04T08:25:17;5.40;;;4.17;;
6832;SDS011;3454;42.654;23.378;2023-12-04T08:27:44;6.57;;;4.10;;
6832;SDS011;3454;42.654;23.378;2023-12-04T08:30:10;6.10;;;4.47;;
6832;SDS011;3454;42.654;23.378;2023-12-04T08:32:36;8.00;;;3.80;;
6832;SDS011;3454;42.654;23.378;2023-12-04T08:35:01;6.90;;;4.03;;
6832;SDS011;3454;42.654;23.378;2023-12-04T08:37:28;7.10;;;3.60;;
6832;SDS011;3454;42.654;23.378;2023-12-04T08:39:54;5.87;;;3.40;;
6832;SDS011;3454;42.654;23.378;2023-12-04T08:42:20;5.47;;;3.37;;
6832;SDS011;3454;42.654;23.378;2023-12-04T08:44:45;7.03;;;4.30;;
6832;SDS011;3454;42.654;23.378;2023-12-04T08:47:13;5.53;;;3.43;;
6832;SDS011;3454;42.654;23.378;2023-12-04T08:49:39;7.27;;;4.43;;
6832;SDS011;3454;42.654;23.378;2023-12-04T08:52:06;8.60;;;3.90;;
6832;SDS011;3454;42.654;23.378;2023-12-04T08:54:33;9.53;;;4.70;;
6832;SDS011;3454;42.654;23.378;2023-12-04T08:57:00;5.97;;;3.43;;
6832;SDS011;3454;42.654;23.378;2023-12-04T08:59:26;7.80;;;4.30;;
6832;SDS011;3454;42.654;23.378;2023-12-04T09:01:51;7.10;;;4.07;;
6832;SDS011;3454;42.654;23.378;2023-12-04T09:04:17;5.80;;;3.70;;
6832;SDS011;3454;42.654;23.378;2023-12-04T09:06:42;6.13;;;3.50;;
6832;SDS011;3454;42.654;23.378;2023-12-04T09:09:08;6.00;;;3.73;;
6832;SDS011;3454;42.654;23.378;2023-12-04T09:11:33;6.40;;;3.87;;
6832;SDS011;3454;42.654;23.378;2023-12-04T09:13:59;4.93;;;3.43;;
6832;SDS011;3454;42.654;23.378;2023-12-04T09:16:24;6.53;;;3.60;;
6832;SDS011;3454;42.654;23.378;2023-12-04T09:18:50;6.97;;;3.47;;
6832;SDS011;3454;42.654;23.378;2023-12-04T09:21:15;5.03;;;3.40;;
6832;SDS011;3454;42.654;23.378;2023-12-04T09:23:41;5.17;;;2.97;;
6832;SDS011;3454;42.654;23.378;2023-12-04T09:26:07;5.20;;;3.53;;
6832;SDS011;3454;42.654;23.378;2023-12-04T09:28:33;4.57;;;3.40;;
6832;SDS011;3454;42.654;23.378;2023-12-04T09:31:00;5.03;;;3.77;;
6832;SDS011;3454;42.654;23.378;2023-12-04T09:33:26;4.93;;;3.20;;
6832;SDS011;3454;42.654;23.378;2023-12-04T09:35:51;6.80;;;4.00;;
6832;SDS011;3454;42.654;23.378;2023-12-04T09:38:18;4.43;;;3.57;;
6832;SDS011;3454;42.654;23.378;2023-12-04T09:40:43;7.17;;;4.33;;
6832;SDS011;3454;42.654;23.378;2023-12-04T09:43:09;5.17;;;4.07;;
6832;SDS011;3454;42.654;23.378;2023-12-04T09:45:35;6.43;;;4.13;;
6832;SDS011;3454;42.654;23.378;2023-12-04T09:48:01;5.77;;;3.57;;
6832;SDS011;3454;42.654;23.378;2023-12-04T09:50:27;7.33;;;4.37;;
6832;SDS011;3454;42.654;23.378;2023-12-04T09:52:53;4.63;;;3.43;;
6832;SDS011;3454;42.654;23.378;2023-12-04T09:55:19;4.97;;;3.40;;
6832;SDS011;3454;42.654;23.378;2023-12-04T09:57:45;8.67;;;5.43;;
6832;SDS011;3454;42.654;23.378;2023-12-04T10:00:12;5.20;;;3.40;;
6832;SDS011;3454;42.654;23.378;2023-12-04T10:02:40;4.30;;;3.17;;
6832;SDS011;3454;42.654;23.378;2023-12-04T10:05:09;5.67;;;3.63;;
6832;SDS011;3454;42.654;23.378;2023-12-04T10:07:35;4.67;;;3.63;;
6832;SDS011;3454;42.654;23.378;2023-12-04T10:10:03;4.87;;;4.10;;
6832;SDS011;3454;42.654;23.378;2023-12-04T10:12:33;5.40;;;3.30;;
6832;SDS011;3454;42.654;23.378;2023-12-04T10:15:06;6.77;;;3.50;;
6832;SDS011;3454;42.654;23.378;2023-12-04T10:17:35;5.00;;;3.80;;
6832;SDS011;3454;42.654;23.378;2023-12-04T10:20:04;8.57;;;4.87;;
6832;SDS011;3454;42.654;23.378;2023-12-04T10:23:01;8.80;;;4.80;;
6832;SDS011;3454;42.654;23.378;2023-12-04T10:25:28;7.10;;;3.53;;
6832;SDS011;3454;42.654;23.378;2023-12-04T10:28:07;5.27;;;4.20;;
6832;SDS011;3454;42.654;23.378;2023-12-04T10:30:34;5.77;;;4.03;;
6832;SDS011;3454;42.654;23.378;2023-12-04T10:33:03;6.20;;;4.23;;
6832;SDS011;3454;42.654;23.378;2023-12-04T10:35:30;7.83;;;3.67;;
6832;SDS011;3454;42.654;23.378;2023-12-04T10:37:58;3.67;;;3.20;;
6832;SDS011;3454;42.654;23.378;2023-12-04T10:40:28;5.00;;;3.60;;
6832;SDS011;3454;42.654;23.378;2023-12-04T10:43:15;4.73;;;3.40;;
6832;SDS011;3454;42.654;23.378;2023-12-04T10:45:44;6.33;;;4.03;;
6832;SDS011;3454;42.654;23.378;2023-12-04T10:48:11;7.50;;;3.60;;
6832;SDS011;3454;42.654;23.378;2023-12-04T10:50:38;6.13;;;3.70;;
6832;SDS011;3454;42.654;23.378;2023-12-04T10:53:06;5.57;;;4.03;;
6832;SDS011;3454;42.654;23.378;2023-12-04T10:55:33;6.03;;;4.20;;
6832;SDS011;3454;42.654;23.378;2023-12-04T10:57:59;6.00;;;4.20;;
6832;SDS011;3454;42.654;23.378;2023-12-04T11:00:41;5.10;;;3.83;;
6832;SDS011;3454;42.654;23.378;2023-12-04T11:03:21;8.93;;;4.23;;
6832;SDS011;3454;42.654;23.378;2023-12-04T11:05:58;5.63;;;4.33;;
6832;SDS011;3454;42.654;23.378;2023-12-04T11:08:25;4.73;;;4.03;;
6832;SDS011;3454;42.654;23.378;2023-12-04T11:11:03;9.23;;;4.67;;
6832;SDS011;3454;42.654;23.378;2023-12-04T11:13:34;5.97;;;4.20;;
6832;SDS011;3454;42.654;23.378;2023-12-04T11:16:07;4.63;;;3.80;;
6832;SDS011;3454;42.654;23.378;2023-12-04T11:18:43;7.47;;;4.00;;
6832;SDS011;3454;42.654;23.378;2023-12-04T11:21:13;6.40;;;4.03;;
6832;SDS011;3454;42.654;23.378;2023-12-04T11:23:38;7.30;;;4.83;;
6832;SDS011;3454;42.654;23.378;2023-12-04T11:26:05;5.27;;;4.23;;
6832;SDS011;3454;42.654;23.378;2023-12-04T11:28:32;5.10;;;4.00;;
6832;SDS011;3454;42.654;23.378;2023-12-04T11:30:59;5.67;;;4.20;;
6832;SDS011;3454;42.654;23.378;2023-12-04T11:33:26;6.40;;;5.07;;
6832;SDS011;3454;42.654;23.378;2023-12-04T11:35:52;6.30;;;4.33;;
6832;SDS011;3454;42.654;23.378;2023-12-04T11:38:17;5.27;;;4.40;;
6832;SDS011;3454;42.654;23.378;2023-12-04T11:40:43;6.50;;;4.20;;
6832;SDS011;3454;42.654;23.378;2023-12-04T11:43:44;8.20;;;5.30;;
6832;SDS011;3454;42.654;23.378;2023-12-04T11:46:07;9.43;;;4.23;;
6832;SDS011;3454;42.654;23.378;2023-12-04T11:48:36;6.17;;;4.20;;
6832;SDS011;3454;42.654;23.378;2023-12-04T11:51:02;6.27;;;4.43;;
6832;SDS011;3454;42.654;23.378;2023-12-04T11:53:27;6.33;;;4.70;;
6832;SDS011;3454;42.654;23.378;2023-12-04T11:55:55;7.17;;;4.90;;
6832;SDS011;3454;42.654;23.378;2023-12-04T11:58:23;6.20;;;4.70;;
6832;SDS011;3454;42.654;23.378;2023-12-04T12:00:49;7.00;;;4.87;;
6832;SDS011;3454;42.654;23.378;2023-12-04T12:03:17;10.13;;;5.07;;
6832;SDS011;3454;42.654;23.378;2023-12-04T12:05:43;9.13;;;5.10;;
6832;SDS011;3454;42.654;23.378;2023-12-04T12:08:09;8.37;;;5.03;;
6832;SDS011;3454;42.654;23.378;2023-12-04T12:10:35;6.43;;;4.63;;
6832;SDS011;3454;42.654;23.378;2023-12-04T12:13:01;6.97;;;5.33;;
6832;SDS011;3454;42.654;23.378;2023-12-04T12:15:27;9.03;;;4.90;;
6832;SDS011;3454;42.654;23.378;2023-12-04T12:17:53;6.90;;;4.93;;
6832;SDS011;3454;42.654;23.378;2023-12-04T12:20:18;7.40;;;5.27;;
6832;SDS011;3454;42.654;23.378;2023-12-04T12:22:45;7.57;;;4.53;;
6832;SDS011;3454;42.654;23.378;2023-12-04T12:25:12;5.73;;;4.80;;
6832;SDS011;3454;42.654;23.378;2023-12-04T12:27:39;6.93;;;4.93;;
6832;SDS011;3454;42.654;23.378;2023-12-04T12:30:06;9.53;;;4.90;;
6832;SDS011;3454;42.654;23.378;2023-12-04T12:32:35;11.50;;;5.20;;
6832;SDS011;3454;42.654;23.378;2023-12-04T12:35:01;8.97;;;5.27;;
6832;SDS011;3454;42.654;23.378;2023-12-04T12:37:26;8.87;;;5.93;;
6832;SDS011;3454;42.654;23.378;2023-12-04T12:39:53;9.97;;;5.30;;
6832;SDS011;3454;42.654;23.378;2023-12-04T12:42:26;8.43;;;6.47;;
6832;SDS011;3454;42.654;23.378;2023-12-04T12:44:53;8.43;;;5.83;;
6832;SDS011;3454;42.654;23.378;2023-12-04T12:47:21;9.37;;;6.17;;
6832;SDS011;3454;42.654;23.378;2023-12-04T12:49:47;10.43;;;5.60;;
6832;SDS011;3454;42.654;23.378;2023-12-04T12:52:13;9.07;;;6.17;;
6832;SDS011;3454;42.654;23.378;2023-12-04T12:54:40;10.50;;;6.27;;
6832;SDS011;3454;42.654;23.378;2023-12-04T12:57:07;8.77;;;6.07;;
6832;SDS011;3454;42.654;23.378;2023-12-04T12:59:34;8.93;;;6.03;;
6832;SDS011;3454;42.654;23.378;2023-12-04T13:02:00;10.07;;;6.00;;
6832;SDS011;3454;42.654;23.378;2023-12-04T13:04:42;15.03;;;6.73;;
6832;SDS011;3454;42.654;23.378;2023-12-04T13:07:09;12.10;;;6.23;;
6832;SDS011;3454;42.654;23.378;2023-12-04T13:09:35;13.50;;;7.17;;
6832;SDS011;3454;42.654;23.378;2023-12-04T13:12:04;8.10;;;6.20;;
6832;SDS011;3454;42.654;23.378;2023-12-04T13:14:31;10.47;;;6.27;;
6832;SDS011;3454;42.654;23.378;2023-12-04T13:16:57;10.20;;;5.97;;
6832;SDS011;3454;42.654;23.378;2023-12-04T13:19:23;9.87;;;5.60;;
6832;SDS011;3454;42.654;23.378;2023-12-04T13:21:49;8.87;;;6.43;;
6832;SDS011;3454;42.654;23.378;2023-12-04T13:24:15;10.00;;;6.43;;
6832;SDS011;3454;42.654;23.378;2023-12-04T13:26:41;11.87;;;7.00;;
6832;SDS011;3454;42.654;23.378;2023-12-04T13:29:06;14.23;;;8.03;;
6832;SDS011;3454;42.654;23.378;2023-12-04T13:31:35;12.73;;;7.23;;
6832;SDS011;3454;42.654;23.378;2023-12-04T13:34:01;12.43;;;7.13;;
6832;SDS011;3454;42.654;23.378;2023-12-04T13:36:28;11.53;;;7.60;;
6832;SDS011;3454;42.654;23.378;2023-12-04T13:38:54;15.07;;;9.07;;
6832;SDS011;3454;42.654;23.378;2023-12-04T13:41:19;16.63;;;8.87;;
6832;SDS011;3454;42.654;23.378;2023-12-04T13:44:03;12.87;;;8.00;;
6832;SDS011;3454;42.654;23.378;2023-12-04T13:46:29;15.87;;;8.27;;
6832;SDS011;3454;42.654;23.378;2023-12-04T13:48:56;12.60;;;7.90;;
6832;SDS011;3454;42.654;23.378;2023-12-04T13:51:22;15.67;;;7.50;;
6832;SDS011;3454;42.654;23.378;2023-12-04T13:53:47;15.13;;;8.37;;
6832;SDS011;3454;42.654;23.378;2023-12-04T13:56:15;12.33;;;7.57;;
6832;SDS011;3454;42.654;23.378;2023-12-04T13:59:07;15.87;;;6.63;;
6832;SDS011;3454;42.654;23.378;2023-12-04T14:01:33;13.90;;;7.10;;
6832;SDS011;3454;42.654;23.378;2023-12-04T14:03:59;10.20;;;6.00;;
6832;SDS011;3454;42.654;23.378;2023-12-04T14:06:27;10.10;;;6.07;;
6832;SDS011;3454;42.654;23.378;2023-12-04T14:08:53;8.93;;;5.67;;
6832;SDS011;3454;42.654;23.378;2023-12-04T14:11:19;13.00;;;7.13;;
6832;SDS011;3454;42.654;23.378;2023-12-04T14:13:46;8.67;;;6.37;;
6832;SDS011;3454;42.654;23.378;2023-12-04T14:16:11;12.23;;;6.83;;
6832;SDS011;3454;42.654;23.378;2023-12-04T14:18:38;10.10;;;6.70;;
6832;SDS011;3454;42.654;23.378;2023-12-04T14:21:05;9.77;;;6.33;;
6832;SDS011;3454;42.654;23.378;2023-12-04T14:23:31;16.83;;;7.33;;
6832;SDS011;3454;42.654;23.378;2023-12-04T14:25:57;12.70;;;7.10;;
6832;SDS011;3454;42.654;23.378;2023-12-04T14:28:22;15.10;;;6.73;;
6832;SDS011;3454;42.654;23.378;2023-12-04T14:30:48;11.83;;;7.17;;
6832;SDS011;3454;42.654;23.378;2023-12-04T14:33:14;10.27;;;5.90;;
6832;SDS011;3454;42.654;23.378;2023-12-04T14:35:40;13.27;;;6.17;;
6832;SDS011;3454;42.654;23.378;2023-12-04T14:38:06;11.57;;;6.90;;
6832;SDS011;3454;42.654;23.378;2023-12-04T14:40:39;7.77;;;6.40;;
6832;SDS011;3454;42.654;23.378;2023-12-04T14:43:05;14.97;;;8.30;;
6832;SDS011;3454;42.654;23.378;2023-12-04T14:45:34;12.80;;;6.90;;
6832;SDS011;3454;42.654;23.378;2023-12-04T14:48:01;11.20;;;7.27;;
6832;SDS011;3454;42.654;23.378;2023-12-04T14:50:27;16.60;;;6.03;;
6832;SDS011;3454;42.654;23.378;2023-12-04T14:52:53;18.87;;;6.73;;
6832;SDS011;3454;42.654;23.378;2023-12-04T14:55:20;18.10;;;7.17;;
6832;SDS011;3454;42.654;23.378;2023-12-04T14:57:51;9.40;;;5.80;;